createdAt,value
2023-01-02T00:01:27.719Z,27.10
2023-01-02T00:03:57.246Z,27.10
2023-01-02T00:06:26.252Z,27.10
2023-01-02T00:08:54.332Z,27.00
2023-01-02T00:11:22.734Z,27.00
2023-01-02T00:13:50.872Z,27.10
2023-01-02T00:16:19.238Z,27.10
2023-01-02T00:18:48.397Z,27.10
2023-01-02T00:21:18.731Z,27.10
2023-01-02T00:23:47.259Z,27.00
2023-01-02T00:26:15.604Z,27.00
2023-01-02T00:28:43.797Z,27.00
2023-01-02T00:31:15.036Z,27.00
2023-01-02T00:33:43.360Z,27.00
2023-01-02T00:36:13.930Z,26.90
2023-01-02T00:38:42.406Z,26.90
2023-01-02T00:41:11.019Z,26.80
2023-01-02T00:43:39.264Z,26.80
2023-01-02T00:46:11.612Z,26.70
2023-01-02T00:48:40.940Z,26.60
2023-01-02T00:51:09.704Z,26.50
2023-01-02T00:53:38.686Z,26.50
2023-01-02T00:56:07.355Z,26.50
2023-01-02T00:58:36.047Z,26.40
2023-01-02T01:01:05.269Z,26.40
2023-01-02T01:03:33.807Z,26.30
2023-01-02T01:06:08.114Z,26.30
2023-01-02T01:08:37.683Z,26.30
2023-01-02T01:11:11.806Z,26.30
2023-01-02T01:13:40.404Z,26.30
2023-01-02T01:16:12.517Z,26.20
2023-01-02T01:18:40.970Z,26.10
2023-01-02T01:21:17.852Z,26.10
2023-01-02T01:23:50.621Z,26.10
2023-01-02T01:26:19.330Z,26.00
2023-01-02T01:28:47.890Z,26.00
2023-01-02T01:31:17.267Z,26.00
2023-01-02T01:33:46.383Z,26.00
2023-01-02T01:36:24.936Z,26.00
2023-01-02T01:38:53.372Z,26.00
2023-01-02T01:41:24.217Z,25.90
2023-01-02T01:43:54.325Z,25.90
2023-01-02T01:46:25.595Z,25.90
2023-01-02T01:49:16.747Z,25.80
2023-01-02T01:52:13.049Z,25.80
2023-01-02T01:54:52.677Z,25.70
2023-01-02T01:57:38.472Z,25.70
2023-01-02T02:00:07.626Z,25.70
2023-01-02T02:02:36.991Z,25.60
2023-01-02T02:05:06.840Z,25.60
2023-01-02T02:07:39.861Z,25.60
2023-01-02T02:10:10.401Z,25.60
2023-01-02T02:12:38.601Z,25.70
2023-01-02T02:15:10.535Z,25.60
2023-01-02T02:17:57.145Z,25.60
2023-01-02T02:20:50.859Z,25.50
2023-01-02T02:23:35.799Z,25.50
2023-01-02T02:26:35.157Z,25.50
2023-01-02T02:29:34.179Z,25.40
2023-01-02T02:32:16.159Z,25.30
2023-01-02T02:35:19.464Z,25.30
2023-01-02T02:38:09.853Z,25.30
2023-01-02T02:41:09.750Z,25.30
2023-01-02T02:44:02.455Z,25.30
2023-01-02T02:46:57.896Z,25.30
2023-01-02T02:49:32.150Z,25.20
2023-01-02T02:52:22.029Z,25.10
2023-01-02T02:55:13.685Z,25.10
2023-01-02T02:57:43.320Z,25.10
2023-01-02T03:00:15.761Z,25.10
2023-01-02T03:02:44.318Z,25.10
2023-01-02T03:05:35.931Z,25.10
2023-01-02T03:08:38.401Z,25.10
2023-01-02T03:11:07.007Z,25.10
2023-01-02T03:13:57.495Z,25.10
2023-01-02T03:16:44.372Z,25.10
2023-01-02T03:19:20.928Z,25.00
2023-01-02T03:21:59.611Z,25.00
2023-01-02T03:24:29.626Z,24.90
2023-01-02T03:27:04.536Z,24.90
2023-01-02T03:29:47.093Z,25.00
2023-01-02T03:32:24.198Z,24.90
2023-01-02T03:34:53.757Z,24.90
2023-01-02T03:37:27.222Z,24.80
2023-01-02T03:40:00.005Z,24.80
2023-01-02T03:42:37.658Z,24.80
2023-01-02T03:45:22.589Z,24.80
2023-01-02T03:48:02.501Z,24.80
2023-01-02T03:50:37.322Z,24.80
2023-01-02T03:53:05.726Z,24.70
2023-01-02T03:55:37.465Z,24.70
2023-01-02T03:58:13.293Z,24.80
2023-01-02T04:00:53.390Z,24.80
2023-01-02T04:03:50.767Z,24.80
2023-01-02T04:06:25.286Z,24.80
2023-01-02T04:09:10.148Z,24.80
2023-01-02T04:11:43.192Z,24.70
2023-01-02T04:14:20.994Z,24.80
2023-01-02T04:16:51.428Z,24.80
2023-01-02T04:19:29.417Z,24.80
2023-01-02T04:22:02.535Z,24.80
2023-01-02T04:24:34.631Z,24.80
2023-01-02T04:27:14.470Z,24.70
2023-01-02T04:29:42.730Z,24.80
2023-01-02T04:32:36.376Z,24.80
2023-01-02T04:35:10.963Z,24.80
2023-01-02T04:37:41.700Z,24.70
2023-01-02T04:40:31.428Z,24.70
2023-01-02T04:42:59.612Z,24.70
2023-01-02T04:45:27.813Z,24.70
2023-01-02T04:47:56.123Z,24.70
2023-01-02T04:50:24.277Z,24.60
2023-01-02T04:52:52.567Z,24.60
2023-01-02T04:55:20.889Z,24.60
2023-01-02T04:57:49.086Z,24.60
2023-01-02T05:00:17.578Z,24.70
2023-01-02T05:02:46.003Z,24.60
2023-01-02T05:05:14.250Z,24.70
2023-01-02T05:07:42.342Z,24.60
2023-01-02T05:10:10.974Z,24.50
2023-01-02T05:12:40.031Z,24.50
2023-01-02T05:15:10.224Z,24.50
2023-01-02T05:17:42.854Z,24.50
2023-01-02T05:20:13.536Z,24.50
2023-01-02T05:22:43.212Z,24.50
2023-01-02T05:25:11.409Z,24.50
2023-01-02T05:27:39.547Z,24.50
2023-01-02T05:30:08.618Z,24.50
2023-01-02T05:32:36.947Z,24.50
2023-01-02T05:35:05.922Z,24.50
2023-01-02T05:37:34.136Z,24.50
2023-01-02T05:40:02.467Z,24.50
2023-01-02T05:42:30.778Z,24.50
2023-01-02T05:44:58.949Z,24.40
2023-01-02T05:47:27.341Z,24.40
2023-01-02T05:49:55.492Z,24.50
2023-01-02T05:52:23.705Z,24.50
2023-01-02T05:54:51.899Z,24.50
2023-01-02T05:57:20.214Z,24.50
2023-01-02T05:59:48.393Z,24.40
2023-01-02T06:02:16.615Z,24.40
2023-01-02T06:04:44.950Z,24.40
2023-01-02T06:07:13.331Z,24.40
2023-01-02T06:09:41.523Z,24.40
2023-01-02T06:12:09.749Z,24.40
2023-01-02T06:14:37.911Z,24.40
2023-01-02T06:17:06.266Z,24.30
2023-01-02T06:19:34.299Z,24.30
2023-01-02T06:22:02.635Z,24.30
2023-01-02T06:24:30.821Z,24.30
2023-01-02T06:26:59.136Z,24.30
2023-01-02T06:29:27.336Z,24.40
2023-01-02T06:31:56.039Z,24.40
2023-01-02T06:34:24.275Z,24.30
2023-01-02T06:36:52.569Z,24.30
2023-01-02T06:39:20.849Z,24.30
2023-01-02T06:41:49.243Z,24.30
2023-01-02T06:44:17.455Z,24.20
2023-01-02T06:46:45.710Z,24.20
2023-01-02T06:49:13.781Z,24.20
2023-01-02T06:51:42.065Z,24.30
2023-01-02T06:54:10.160Z,24.30
2023-01-02T06:56:38.304Z,24.20
2023-01-02T06:59:06.554Z,24.20
2023-01-02T07:01:34.862Z,24.20
2023-01-02T07:04:03.117Z,24.10
2023-01-02T07:06:31.451Z,24.10
2023-01-02T07:08:59.564Z,24.20
2023-01-02T07:11:27.861Z,24.10
2023-01-02T07:13:57.061Z,24.10
2023-01-02T07:16:25.716Z,24.20
2023-01-02T07:18:55.169Z,24.20
2023-01-02T07:21:23.667Z,24.30
2023-01-02T07:23:51.891Z,24.30
2023-01-02T07:26:20.372Z,24.30
2023-01-02T07:28:48.738Z,24.30
2023-01-02T07:31:19.147Z,24.40
2023-01-02T07:33:47.777Z,24.40
2023-01-02T07:36:18.631Z,24.40
2023-01-02T07:38:51.813Z,24.50
2023-01-02T07:41:25.187Z,24.50
2023-01-02T07:43:55.569Z,24.50
2023-01-02T07:46:24.781Z,24.50
2023-01-02T07:48:53.196Z,24.50
2023-01-02T07:51:27.065Z,24.60
2023-01-02T07:53:58.640Z,24.70
2023-01-02T07:56:27.386Z,24.70
2023-01-02T07:58:55.579Z,24.70
2023-01-02T08:01:24.274Z,24.80
2023-01-02T08:03:52.867Z,24.90
2023-01-02T08:06:21.237Z,24.90
2023-01-02T08:08:50.094Z,25.00
2023-01-02T08:11:21.486Z,25.00
2023-01-02T08:13:50.519Z,25.10
2023-01-02T08:16:22.860Z,25.10
2023-01-02T08:18:54.931Z,25.10
2023-01-02T08:21:27.364Z,25.30
2023-01-02T08:23:55.719Z,25.30
2023-01-02T08:26:23.879Z,25.40
2023-01-02T08:28:52.314Z,25.40
2023-01-02T08:31:22.452Z,25.40
2023-01-02T08:33:50.744Z,25.50
2023-01-02T08:36:19.951Z,25.60
2023-01-02T08:38:48.193Z,25.70
2023-01-02T08:41:16.319Z,25.70
2023-01-02T08:43:44.671Z,25.80
2023-01-02T08:46:12.804Z,25.80
2023-01-02T08:48:41.117Z,25.90
2023-01-02T08:51:10.297Z,26.00
2023-01-02T08:53:38.515Z,26.10
2023-01-02T08:56:30.350Z,26.20
2023-01-02T08:59:04.750Z,26.30
2023-01-02T09:01:33.926Z,26.30
2023-01-02T09:04:09.355Z,26.40
2023-01-02T09:06:40.448Z,26.50
2023-01-02T09:09:12.418Z,26.60
2023-01-02T09:11:53.701Z,26.70
2023-01-02T09:14:23.312Z,26.70
2023-01-02T09:16:53.178Z,26.80
2023-01-02T09:19:21.417Z,26.90
2023-01-02T09:21:49.598Z,27.00
2023-01-02T09:24:17.898Z,27.00
2023-01-02T09:26:46.369Z,27.10
2023-01-02T09:29:15.410Z,27.20
2023-01-02T09:31:44.055Z,27.30
2023-01-02T09:34:12.703Z,27.30
2023-01-02T09:36:41.019Z,27.40
2023-01-02T09:39:09.519Z,27.50
2023-01-02T09:41:44.296Z,27.50
2023-01-02T09:44:21.371Z,27.50
2023-01-02T09:47:03.434Z,27.60
2023-01-02T09:49:37.412Z,27.70
2023-01-02T09:52:08.685Z,27.70
2023-01-02T09:54:36.942Z,27.80
2023-01-02T09:57:27.822Z,27.80
2023-01-02T10:00:05.312Z,27.80
2023-01-02T10:03:12.930Z,27.90
2023-01-02T10:05:41.378Z,27.90
2023-01-02T10:08:37.254Z,27.90
2023-01-02T10:11:29.651Z,28.00
2023-01-02T10:14:26.299Z,28.00
2023-01-02T10:16:56.717Z,28.10
2023-01-02T10:19:43.140Z,28.10
2023-01-02T10:22:21.250Z,28.20
2023-01-02T10:25:16.999Z,28.20
2023-01-02T10:27:56.313Z,28.30
2023-01-02T10:30:29.930Z,28.30
2023-01-02T10:33:19.225Z,28.40
2023-01-02T10:36:05.547Z,28.40
2023-01-02T10:38:39.285Z,28.50
2023-01-02T10:41:07.843Z,28.60
2023-01-02T10:43:36.028Z,28.70
2023-01-02T10:46:05.324Z,28.70
2023-01-02T10:48:37.240Z,28.70
2023-01-02T10:51:11.675Z,28.70
2023-01-02T10:53:40.285Z,28.70
2023-01-02T10:56:18.673Z,28.80
2023-01-02T10:58:51.805Z,28.80
2023-01-02T11:01:22.131Z,28.70
2023-01-02T11:04:11.414Z,28.80
2023-01-02T11:07:06.110Z,28.80
2023-01-02T11:09:35.876Z,28.90
2023-01-02T11:12:13.343Z,29.10
2023-01-02T11:14:42.177Z,29.20
2023-01-02T11:17:22.222Z,29.20
2023-01-02T11:19:58.068Z,29.10
2023-01-02T11:22:36.730Z,28.90
2023-01-02T11:25:08.734Z,28.80
2023-01-02T11:27:38.381Z,28.80
2023-01-02T11:30:08.756Z,28.90
2023-01-02T11:32:39.988Z,28.90
2023-01-02T11:35:46.390Z,28.80
2023-01-02T11:38:28.767Z,28.90
2023-01-02T11:41:01.748Z,29.00
2023-01-02T11:43:45.366Z,29.20
2023-01-02T11:46:32.625Z,29.30
2023-01-02T11:49:12.962Z,29.20
2023-01-02T11:51:42.451Z,29.20
2023-01-02T11:54:20.240Z,29.30
2023-01-02T11:56:50.388Z,29.40
2023-01-02T11:59:40.492Z,29.40
2023-01-02T12:02:15.172Z,29.60
2023-01-02T12:04:43.499Z,29.60
2023-01-02T12:07:23.258Z,29.90
2023-01-02T12:10:28.408Z,29.90
2023-01-02T12:13:30.204Z,29.70
2023-01-02T12:16:14.088Z,29.90
2023-01-02T12:18:48.427Z,29.90
2023-01-02T12:21:33.853Z,29.90
2023-01-02T12:24:14.218Z,30.00
2023-01-02T12:26:45.551Z,30.10
2023-01-02T12:29:47.117Z,30.00
2023-01-02T12:32:29.397Z,30.10
2023-01-02T12:35:03.791Z,30.20
2023-01-02T12:37:57.507Z,30.10
2023-01-02T12:40:56.866Z,30.00
2023-01-02T12:44:07.427Z,30.00
2023-01-02T12:46:35.587Z,30.20
2023-01-02T12:49:22.413Z,30.40
2023-01-02T12:52:40.295Z,30.40
2023-01-02T12:55:33.268Z,30.50
2023-01-02T12:58:28.854Z,30.50
2023-01-02T13:01:16.946Z,30.40
2023-01-02T13:04:00.005Z,30.60
2023-01-02T13:06:54.055Z,30.40
2023-01-02T13:09:28.362Z,30.40
2023-01-02T13:12:02.390Z,30.50
2023-01-02T13:14:54.320Z,30.70
2023-01-02T13:17:34.826Z,30.80
2023-01-02T13:20:26.342Z,30.60
2023-01-02T13:23:27.915Z,30.70
2023-01-02T13:26:13.098Z,31.00
2023-01-02T13:28:53.188Z,30.90
2023-01-02T13:34:31.621Z,31.00
2023-01-02T13:37:07.659Z,30.80
2023-01-02T13:39:42.064Z,30.90
2023-01-02T13:42:23.254Z,31.10
2023-01-02T13:44:54.621Z,30.90
2023-01-02T13:47:39.106Z,30.80
2023-01-02T13:50:16.442Z,30.70
2023-01-02T13:53:10.626Z,30.90
2023-01-02T13:55:38.807Z,31.10
2023-01-02T13:58:38.509Z,31.20
2023-01-02T14:01:24.948Z,31.20
2023-01-02T14:04:08.456Z,31.20
2023-01-02T14:06:39.578Z,31.40
2023-01-02T14:09:22.035Z,31.40
2023-01-02T14:11:55.300Z,31.50
2023-01-02T14:14:33.696Z,31.10
2023-01-02T14:17:38.327Z,30.80
2023-01-02T14:20:18.920Z,30.90
2023-01-02T14:22:54.203Z,30.90
2023-01-02T14:25:23.305Z,31.00
2023-01-02T14:28:02.728Z,31.00
2023-01-02T14:30:42.135Z,31.20
2023-01-02T14:33:22.565Z,31.30
2023-01-02T14:35:54.406Z,31.30
2023-01-02T14:38:27.003Z,31.50
2023-01-02T14:40:55.453Z,31.70
2023-01-02T14:43:35.496Z,31.70
2023-01-02T14:46:24.425Z,31.50
2023-01-02T14:49:26.100Z,31.30
2023-01-02T14:52:06.620Z,31.70
2023-01-02T14:54:42.850Z,31.70
2023-01-02T14:57:35.474Z,32.00
2023-01-02T15:00:10.649Z,31.90
2023-01-02T15:02:46.515Z,31.80
2023-01-02T15:05:23.344Z,31.80
2023-01-02T15:07:55.145Z,31.70
2023-01-02T15:10:24.552Z,31.80
2023-01-02T15:12:54.162Z,31.80
2023-01-02T15:15:27.325Z,31.90
2023-01-02T15:18:01.951Z,32.10
2023-01-02T15:20:30.905Z,32.10
2023-01-02T15:22:59.523Z,32.40
2023-01-02T15:25:38.880Z,32.30
2023-01-02T15:28:22.465Z,32.70
2023-01-02T15:31:16.498Z,32.30
2023-01-02T15:33:51.446Z,32.10
2023-01-02T15:36:40.372Z,31.80
2023-01-02T15:39:22.677Z,32.00
2023-01-02T15:41:57.457Z,32.10
2023-01-02T15:44:28.810Z,32.30
2023-01-02T15:46:57.455Z,32.60
2023-01-02T15:49:26.580Z,32.60
2023-01-02T15:51:55.276Z,32.70
2023-01-02T15:54:23.689Z,32.80
2023-01-02T15:56:52.524Z,32.50
2023-01-02T15:59:30.550Z,32.60
2023-01-02T16:01:58.938Z,32.50
2023-01-02T16:04:32.696Z,32.50
2023-01-02T16:07:15.369Z,32.50
2023-01-02T16:09:51.940Z,32.40
2023-01-02T16:12:22.568Z,32.50
2023-01-02T16:14:55.940Z,32.30
2023-01-02T16:17:28.220Z,32.70
2023-01-02T16:20:32.859Z,32.30
2023-01-02T16:23:06.023Z,32.20
2023-01-02T16:25:37.632Z,32.50
2023-01-02T16:28:33.945Z,32.30
2023-01-02T16:31:20.180Z,32.80
2023-01-02T16:33:49.180Z,32.90
2023-01-02T16:36:22.199Z,32.60
2023-01-02T16:38:54.731Z,32.40
2023-01-02T16:41:29.017Z,32.20
2023-01-02T16:43:57.350Z,32.10
2023-01-02T16:46:27.459Z,32.10
2023-01-02T16:49:02.922Z,32.00
2023-01-02T16:51:34.020Z,31.80
2023-01-02T16:54:02.187Z,31.90
2023-01-02T16:56:30.319Z,32.00
2023-01-02T16:58:58.616Z,31.90
2023-01-02T17:01:27.007Z,31.40
2023-01-02T17:03:55.162Z,31.40
2023-01-02T17:06:23.506Z,31.30
2023-01-02T17:08:52.072Z,31.30
2023-01-02T17:11:22.952Z,31.40
2023-01-02T17:13:52.842Z,31.20
2023-01-02T17:16:21.273Z,31.20
2023-01-02T17:18:49.492Z,31.30
2023-01-02T17:21:17.854Z,31.00
2023-01-02T17:23:46.107Z,30.80
2023-01-02T17:26:14.405Z,30.70
2023-01-02T17:28:42.682Z,30.60
2023-01-02T17:31:15.261Z,30.30
2023-01-02T17:33:43.559Z,30.30
2023-01-02T17:36:11.929Z,30.30
2023-01-02T17:38:40.215Z,30.00
2023-01-02T17:41:08.410Z,30.00
2023-01-02T17:43:36.815Z,30.00
2023-01-02T17:46:38.673Z,29.90
2023-01-02T17:48:57.081Z,29.80
2023-01-02T17:51:25.285Z,29.80
2023-01-02T17:53:55.367Z,29.80
2023-01-02T17:56:23.693Z,29.70
2023-01-02T17:58:52.223Z,29.60
2023-01-02T18:01:21.921Z,29.60
2023-01-02T18:03:50.536Z,29.50
2023-01-02T18:06:19.367Z,29.40
2023-01-02T18:08:47.628Z,29.40
2023-01-02T18:11:17.007Z,29.40
2023-01-02T18:13:57.061Z,29.30
2023-01-02T18:16:30.570Z,29.20
2023-01-02T18:18:59.631Z,29.20
2023-01-02T18:21:30.896Z,29.20
2023-01-02T18:24:02.177Z,29.10
2023-01-02T18:26:32.180Z,29.00
2023-01-02T18:29:09.351Z,29.00
2023-01-02T18:31:43.640Z,29.00
2023-01-02T18:37:24.251Z,28.80
2023-01-02T18:39:53.764Z,28.70
2023-01-02T18:42:27.445Z,28.70
2023-01-02T18:44:59.040Z,28.70
2023-01-02T18:47:32.566Z,28.70
2023-01-02T18:50:10.083Z,28.60
2023-01-02T18:52:43.292Z,28.60
2023-01-02T18:55:11.629Z,28.60
2023-01-02T18:57:48.418Z,28.60
2023-01-02T19:00:31.285Z,28.60
2023-01-02T19:03:23.639Z,28.50
2023-01-02T19:05:51.896Z,28.50
2023-01-02T19:08:25.263Z,28.50
2023-01-02T19:10:56.506Z,28.50
2023-01-02T19:13:35.688Z,28.50
2023-01-02T19:16:06.185Z,28.50
2023-01-02T19:18:40.201Z,28.50
2023-01-02T19:21:29.970Z,28.50
2023-01-02T19:24:03.161Z,28.50
2023-01-02T19:26:44.592Z,28.50
2023-01-02T19:29:12.969Z,28.40
2023-01-02T19:32:02.424Z,28.40
2023-01-02T19:34:48.146Z,28.40
2023-01-02T19:37:25.053Z,28.40
2023-01-02T19:39:55.979Z,28.30
2023-01-02T19:42:26.404Z,28.30
2023-01-02T19:45:03.370Z,28.30
2023-01-02T19:47:34.176Z,28.30
2023-01-02T19:50:03.002Z,28.30
2023-01-02T19:52:31.267Z,28.30
2023-01-02T19:54:59.688Z,28.30
2023-01-02T19:57:28.014Z,28.30
2023-01-02T19:59:56.565Z,28.30
2023-01-02T20:02:26.114Z,28.30
2023-01-02T20:04:55.515Z,28.30
2023-01-02T20:07:25.556Z,28.30
2023-01-02T20:09:54.202Z,28.20
2023-01-02T20:12:22.879Z,28.30
2023-01-02T20:14:51.355Z,28.20
2023-01-02T20:17:20.095Z,28.20
2023-01-02T20:19:48.829Z,28.20
2023-01-02T20:22:19.245Z,28.20
2023-01-02T20:24:47.911Z,28.20
2023-01-02T20:27:16.234Z,28.20
2023-01-02T20:29:44.623Z,28.20
2023-01-02T20:32:12.783Z,28.10
2023-01-02T20:34:41.353Z,28.10
2023-01-02T20:37:11.095Z,28.10
2023-01-02T20:39:39.378Z,28.10
2023-01-02T20:42:13.095Z,28.00
2023-01-02T20:44:42.368Z,28.00
2023-01-02T20:47:11.292Z,28.10
2023-01-02T20:49:40.731Z,28.00
2023-01-02T20:52:09.542Z,28.00
2023-01-02T20:54:37.908Z,28.00
2023-01-02T20:57:06.357Z,28.00
2023-01-02T20:59:34.638Z,28.00
2023-01-02T21:02:03.173Z,28.00
2023-01-02T21:04:36.435Z,28.00
2023-01-02T21:07:06.546Z,28.00
2023-01-02T21:09:36.908Z,28.00
2023-01-02T21:12:05.419Z,27.90
2023-01-02T21:14:37.531Z,27.90
2023-01-02T21:17:06.405Z,27.90
2023-01-02T21:19:34.688Z,27.90
2023-01-02T21:22:03.072Z,28.00
2023-01-02T21:24:31.321Z,27.90
2023-01-02T21:26:59.576Z,27.90
2023-01-02T21:29:28.050Z,27.90
2023-01-02T21:31:56.470Z,27.90
2023-01-02T21:34:27.771Z,27.80
2023-01-02T21:36:56.244Z,27.80
2023-01-02T21:39:24.592Z,27.90
2023-01-02T21:41:52.802Z,27.80
2023-01-02T21:44:21.249Z,27.80
2023-01-02T21:46:49.550Z,27.80
2023-01-02T21:49:17.940Z,27.80
2023-01-02T21:51:46.259Z,27.80
2023-01-02T21:54:14.626Z,27.80
2023-01-02T21:56:43.881Z,27.80
2023-01-02T21:59:12.255Z,27.80
2023-01-02T22:01:41.619Z,27.70
2023-01-02T22:04:10.163Z,27.80
2023-01-02T22:06:45.662Z,27.80
2023-01-02T22:09:25.366Z,27.80
2023-01-02T22:11:53.636Z,27.70
2023-01-02T22:14:23.563Z,27.80
2023-01-02T22:16:52.024Z,27.80
2023-01-02T22:19:21.048Z,27.70
2023-01-02T22:21:49.910Z,27.70
2023-01-02T22:24:18.768Z,27.70
2023-01-02T22:26:48.938Z,27.70
2023-01-02T22:29:19.655Z,27.70
2023-01-02T22:31:50.147Z,27.70
2023-01-02T22:34:23.559Z,27.70
2023-01-02T22:36:52.155Z,27.70
2023-01-02T22:39:28.939Z,27.70
2023-01-02T22:42:01.704Z,27.70
2023-01-02T22:44:31.499Z,27.70
2023-01-02T22:46:59.942Z,27.70
2023-01-02T22:49:29.288Z,27.70
2023-01-02T22:52:06.967Z,27.70
2023-01-02T22:54:35.736Z,27.60
2023-01-02T22:57:09.162Z,27.60
2023-01-02T22:59:37.621Z,27.60
2023-01-02T23:02:09.239Z,27.60
2023-01-02T23:04:37.545Z,27.60
2023-01-02T23:07:23.372Z,27.60
2023-01-02T23:09:52.325Z,27.60
2023-01-02T23:12:20.739Z,27.60
2023-01-02T23:14:49.017Z,27.60
2023-01-02T23:17:17.276Z,27.60
2023-01-02T23:19:45.597Z,27.60
2023-01-02T23:22:13.762Z,27.60
2023-01-02T23:24:42.031Z,27.60
2023-01-02T23:27:12.934Z,27.60
2023-01-02T23:29:41.621Z,27.50
2023-01-02T23:32:10.181Z,27.60
2023-01-02T23:34:38.370Z,27.50
2023-01-02T23:37:06.991Z,27.60
2023-01-02T23:39:37.140Z,27.50
2023-01-02T23:42:05.609Z,27.60
2023-01-02T23:44:33.694Z,27.60
2023-01-02T23:47:08.841Z,27.50
2023-01-02T23:49:38.472Z,27.60
2023-01-02T23:52:07.058Z,27.50
2023-01-02T23:54:35.382Z,27.50
2023-01-02T23:57:03.749Z,27.50
2023-01-02T23:59:32.094Z,27.50
